Time;durP1;ratioP1;P1;durP2;ratioP2;P2;SDS_P1;SDS_P2;PMS_P1;PMS_P2;Temp;Humidity;BMP_temperature;BMP_pressure;BME280_temperature;BME280_humidity;BME280_pressure;Samples;Min_cycle;Max_cycle;Signal;HPM_P1;HPM_P2
2024/02/01 00:01:04;;;;;;;16.45;9.73;;;;;;;4.00;84.51;100937.20;1798758;79;26479;-47
2024/02/01 00:03:33;;;;;;;14.83;8.15;;;;;;;3.98;84.42;100926.74;1798933;79;25640;-46
2024/02/01 00:06:00;;;;;;;12.58;8.08;;;;;;;3.96;84.37;100927.53;1798800;79;27429;-43
2024/02/01 00:08:27;;;;;;;17.87;8.18;;;;;;;3.91;84.16;100916.22;1798697;79;25686;-44
2024/02/01 00:10:53;;;;;;;13.88;8.40;;;;;;;3.91;84.17;100914.87;1798781;79;25364;-43
2024/02/01 00:13:20;;;;;;;16.27;8.88;;;;;;;3.92;84.15;100905.00;1798784;79;25635;-44
2024/02/01 00:15:47;;;;;;;14.50;8.88;;;;;;;3.90;84.09;100909.27;1798846;79;25590;-47
2024/02/01 00:18:14;;;;;;;13.25;8.88;;;;;;;3.89;84.13;100901.48;1798778;79;27516;-47
2024/02/01 00:20:40;;;;;;;16.62;9.68;;;;;;;3.89;84.16;100904.95;1798698;79;25621;-45
2024/02/01 00:23:07;;;;;;;13.78;7.85;;;;;;;3.88;84.26;100907.38;1798792;79;25628;-46
2024/02/01 00:25:34;;;;;;;15.65;9.15;;;;;;;3.89;84.33;100902.82;1798756;79;26188;-46
2024/02/01 00:28:02;;;;;;;14.95;8.70;;;;;;;3.90;84.30;100897.22;1798813;79;25379;-47
2024/02/01 00:30:29;;;;;;;15.93;9.45;;;;;;;3.91;84.35;100891.33;1798881;79;27364;-46
2024/02/01 00:32:56;;;;;;;14.60;8.55;;;;;;;3.92;84.32;100880.38;1798751;79;25364;-45
2024/02/01 00:35:23;;;;;;;16.67;9.38;;;;;;;3.95;84.36;100882.27;1798778;79;25530;-45
2024/02/01 00:37:50;;;;;;;15.38;8.15;;;;;;;3.95;84.40;100876.91;1797710;79;25966;-44
2024/02/01 00:40:17;;;;;;;17.10;8.08;;;;;;;3.95;84.42;100876.41;1795953;79;25583;-44
2024/02/01 00:42:44;;;;;;;13.50;8.10;;;;;;;3.95;84.43;100868.88;1796016;79;27710;-43
2024/02/01 00:45:11;;;;;;;13.38;7.90;;;;;;;3.95;84.49;100858.17;1795832;79;25604;-44
2024/02/01 00:47:37;;;;;;;18.00;8.58;;;;;;;3.95;84.42;100849.64;1795992;79;25386;-44
2024/02/01 00:50:05;;;;;;;15.30;8.43;;;;;;;3.95;84.48;100842.95;1795918;79;25951;-46
2024/02/01 00:52:32;;;;;;;14.38;8.68;;;;;;;3.95;84.39;100834.09;1796011;79;25466;-44
2024/02/01 00:54:59;;;;;;;12.85;8.33;;;;;;;3.96;84.51;100838.39;1795927;79;27665;-43
2024/02/01 00:57:26;;;;;;;15.13;9.03;;;;;;;3.96;84.54;100837.05;1795865;79;26015;-44
2024/02/01 00:59:52;;;;;;;13.83;8.43;;;;;;;3.97;84.61;100833.30;1795976;79;25390;-44
2024/02/01 01:02:19;;;;;;;17.55;8.20;;;;;;;3.95;84.57;100819.37;1795946;79;26071;-43
2024/02/01 01:04:45;;;;;;;29.63;26.62;;;;;;;3.94;84.59;100807.86;1795998;79;25598;-43
2024/02/01 01:07:13;;;;;;;14.28;8.05;;;;;;;3.94;84.69;100803.84;1795942;79;27966;-43
2024/02/01 01:09:40;;;;;;;18.00;9.28;;;;;;;3.93;84.67;100800.88;1795857;79;25536;-43
2024/02/01 01:12:08;;;;;;;14.45;7.95;;;;;;;3.94;84.79;100795.81;1795923;79;25397;-43
2024/02/01 01:14:35;;;;;;;20.80;8.63;;;;;;;3.96;84.80;100787.53;1795944;79;26126;-43
2024/02/01 01:17:01;;;;;;;19.10;9.65;;;;;;;3.95;84.78;100771.19;1795988;79;25588;-42
2024/02/01 01:19:28;;;;;;;15.20;8.25;;;;;;;3.95;84.83;100758.63;1795890;79;27338;-43
2024/02/01 01:21:58;;;;;;;23.15;19.23;;;;;;;3.96;84.89;100757.55;1795869;79;25431;-44
2024/02/01 01:24:24;;;;;;;17.95;9.60;;;;;;;3.95;84.89;100745.76;1795745;79;29908;-44
2024/02/01 01:26:51;;;;;;;20.20;11.12;;;;;;;3.96;84.84;100743.38;1795956;79;26822;-44
2024/02/01 01:29:17;;;;;;;15.85;9.70;;;;;;;3.93;84.94;100733.45;1795946;79;25545;-43
2024/02/01 01:31:46;;;;;;;15.35;9.78;;;;;;;3.88;84.88;100721.87;1796016;79;27269;-43
2024/02/01 01:34:14;;;;;;;18.57;10.50;;;;;;;3.85;84.90;100725.08;1795895;79;25599;-45
2024/02/01 01:36:40;;;;;;;21.45;10.98;;;;;;;3.79;84.91;100722.06;1795951;79;25603;-43
2024/02/01 01:39:09;;;;;;;18.55;10.55;;;;;;;3.76;85.12;100722.03;1795971;79;25752;-43
2024/02/01 01:41:36;;;;;;;19.95;10.08;;;;;;;3.74;85.43;100724.95;1796009;79;25353;-44
2024/02/01 01:44:04;;;;;;;21.87;11.00;;;;;;;3.74;85.52;100721.48;1795974;79;28309;-43
2024/02/01 01:46:32;;;;;;;17.20;10.60;;;;;;;3.72;85.53;100719.05;1795944;79;25655;-43
2024/02/01 01:48:59;;;;;;;20.45;11.95;;;;;;;3.73;85.75;100710.52;1796007;79;25523;-43
2024/02/01 01:51:27;;;;;;;23.52;11.50;;;;;;;3.75;85.81;100707.05;1795882;79;26137;-43
2024/02/01 01:53:56;;;;;;;25.65;11.73;;;;;;;3.74;85.87;100703.55;1796057;79;25492;-42
2024/02/01 01:56:23;;;;;;;20.72;11.65;;;;;;;3.75;86.01;100701.70;1796286;79;28332;-43
2024/02/01 01:58:51;;;;;;;18.95;11.83;;;;;;;3.77;86.05;100704.92;1796022;79;25373;-43
2024/02/01 02:01:19;;;;;;;19.60;11.63;;;;;;;3.77;86.08;100698.23;1796101;79;25388;-43
2024/02/01 02:03:48;;;;;;;19.80;11.73;;;;;;;3.80;86.10;100700.92;1796053;79;25597;-45
2024/02/01 02:06:15;;;;;;;18.07;10.90;;;;;;;3.81;86.29;100702.01;1796208;79;25443;-44
2024/02/01 02:08:41;;;;;;;20.70;11.63;;;;;;;3.82;86.12;100707.65;1796061;79;27239;-46
2024/02/01 02:11:08;;;;;;;17.67;12.23;;;;;;;3.84;86.29;100688.66;1796064;79;25427;-43
2024/02/01 02:13:35;;;;;;;20.23;12.82;;;;;;;3.86;86.04;100694.56;1796086;79;25545;-45
2024/02/01 02:16:03;;;;;;;17.85;11.93;;;;;;;3.88;86.03;100700.47;1796039;79;26300;-45
2024/02/01 02:18:30;;;;;;;22.05;12.33;;;;;;;3.90;85.71;100703.72;1796111;79;25609;-43
2024/02/01 02:20:56;;;;;;;21.33;13.18;;;;;;;3.92;85.64;100697.03;1796092;79;27823;-43
2024/02/01 02:23:23;;;;;;;22.20;12.78;;;;;;;3.93;85.40;100693.31;1795966;79;25619;-44
2024/02/01 02:25:50;;;;;;;22.07;13.93;;;;;;;3.96;85.20;100691.98;1796083;79;25438;-42
2024/02/01 02:28:17;;;;;;;21.85;13.15;;;;;;;3.97;84.83;100682.06;1795992;79;25654;-43
2024/02/01 02:30:43;;;;;;;26.15;14.15;;;;;;;3.97;84.77;100686.91;1796030;79;25387;-46
2024/02/01 02:33:10;;;;;;;20.90;11.65;;;;;;;3.99;84.13;100680.77;1796060;79;27296;-45
2024/02/01 02:35:36;;;;;;;20.57;12.40;;;;;;;4.02;84.28;100677.59;1795963;79;25612;-45
2024/02/01 02:38:03;;;;;;;20.43;12.78;;;;;;;4.06;83.94;100679.22;1796284;79;25591;-45
2024/02/01 02:40:31;;;;;;;20.40;12.93;;;;;;;4.08;83.80;100668.51;1798873;79;25489;-46
2024/02/01 02:42:58;;;;;;;21.82;12.33;;;;;;;4.09;83.64;100664.78;1798942;79;25193;-47
2024/02/01 02:45:25;;;;;;;22.35;12.63;;;;;;;4.10;83.39;100668.26;1798845;79;27205;-46
2024/02/01 02:47:54;;;;;;;18.37;11.35;;;;;;;4.12;83.01;100662.14;1798784;79;25537;-47
2024/02/01 02:50:20;;;;;;;19.48;12.30;;;;;;;4.12;82.60;100659.46;1799001;79;25451;-45
2024/02/01 02:52:47;;;;;;;18.42;11.88;;;;;;;4.14;82.60;100657.84;1798799;79;26254;-44
2024/02/01 02:55:14;;;;;;;42.98;38.90;;;;;;;4.15;82.37;100653.57;1798870;79;25453;-44
2024/02/01 02:57:42;;;;;;;19.67;10.50;;;;;;;4.16;82.35;100643.69;1798866;79;27329;-42
2024/02/01 03:00:18;;;;;;;20.35;12.25;;;;;;;4.16;82.24;100641.81;1798756;79;25579;-44
2024/02/01 03:02:39;;;;;;;20.75;12.55;;;;;;;4.19;82.21;100638.62;1797728;79;25426;-44
2024/02/01 03:05:07;;;;;;;20.50;11.00;;;;;;;4.20;81.92;100630.05;1798822;79;26572;-47
2024/02/01 03:07:34;;;;;;;19.37;10.15;;;;;;;4.20;82.16;100616.66;1798840;79;25455;-46
2024/02/01 03:10:04;;;;;;;20.43;12.07;;;;;;;4.19;81.93;100622.55;1798851;79;27692;-44
2024/02/01 03:12:31;;;;;;;22.67;12.47;;;;;;;4.23;81.84;100617.48;1798769;79;25553;-44
2024/02/01 03:14:57;;;;;;;23.98;13.98;;;;;;;4.24;81.76;100609.71;1798882;79;25397;-44
2024/02/01 03:17:24;;;;;;;19.52;12.60;;;;;;;4.24;81.81;100605.70;1798767;79;25951;-44
2024/02/01 03:19:52;;;;;;;20.65;12.60;;;;;;;4.22;81.79;100595.78;1798867;79;25454;-44
2024/02/01 03:22:19;;;;;;;19.92;12.00;;;;;;;4.22;81.87;100591.77;1798849;79;28200;-47
2024/02/01 03:24:58;;;;;;;20.10;12.43;;;;;;;4.22;81.37;100589.91;1798787;79;25443;-44
2024/02/01 03:27:16;;;;;;;23.25;12.55;;;;;;;4.22;81.57;100586.41;1796217;79;25589;-43
2024/02/01 03:29:46;;;;;;;23.52;13.75;;;;;;;4.21;81.63;100584.81;1798756;79;25665;-47
2024/02/01 03:32:13;;;;;;;22.37;13.75;;;;;;;4.20;81.54;100585.33;1798883;79;25458;-44
2024/02/01 03:34:42;;;;;;;21.70;13.22;;;;;;;4.19;81.27;100575.70;1798823;79;27951;-44
2024/02/01 03:37:14;;;;;;;22.95;13.05;;;;;;;4.20;81.52;100576.50;1798919;79;25383;-45
2024/02/01 03:39:37;;;;;;;21.87;14.03;;;;;;;4.19;81.51;100576.21;1798259;79;25451;-45
2024/02/01 03:42:05;;;;;;;22.25;13.48;;;;;;;4.17;81.43;100560.95;1798868;79;25976;-44
2024/02/01 03:44:37;;;;;;;19.77;12.85;;;;;;;4.18;81.18;100565.25;1798854;79;25454;-43
2024/02/01 03:47:00;;;;;;;21.12;13.48;;;;;;;4.16;81.12;100562.03;1798036;79;27959;-44
2024/02/01 03:49:26;;;;;;;24.10;14.30;;;;;;;4.16;81.17;100560.69;1798748;79;25467;-49
2024/02/01 03:51:53;;;;;;;23.70;13.80;;;;;;;4.15;81.05;100553.17;1798795;79;25367;-44
2024/02/01 03:54:20;;;;;;;19.35;12.80;;;;;;;4.15;80.95;100559.06;1798789;79;26173;-43
2024/02/01 03:56:46;;;;;;;21.15;12.30;;;;;;;4.14;81.04;100554.77;1798851;79;25490;-44
2024/02/01 03:59:14;;;;;;;19.50;12.43;;;;;;;4.14;81.09;100568.98;1798823;79;27346;-44
2024/02/01 04:01:40;;;;;;;20.75;13.05;;;;;;;4.15;81.10;100563.08;1798685;79;25458;-44
2024/02/01 04:04:07;;;;;;;19.23;12.50;;;;;;;4.16;81.08;100561.48;1798813;79;25605;-48
2024/02/01 04:06:37;;;;;;;19.05;12.58;;;;;;;4.15;80.99;100553.17;1798803;79;26235;-44
2024/02/01 04:09:04;;;;;;;23.25;13.98;;;;;;;4.14;80.88;100552.09;1798849;79;25403;-46
2024/02/01 04:11:31;;;;;;;24.25;13.68;;;;;;;4.14;80.59;100554.25;1798769;79;27469;-45
2024/02/01 04:13:58;;;;;;;22.90;14.45;;;;;;;4.14;80.83;100545.39;1798726;79;25601;-42
2024/02/01 04:16:26;;;;;;;22.35;12.63;;;;;;;4.14;80.72;100529.33;1798809;79;25538;-44
2024/02/01 04:18:55;;;;;;;23.90;13.13;;;;;;;4.14;80.81;100527.99;1799015;79;25422;-43
2024/02/01 04:21:22;;;;;;;23.20;12.78;;;;;;;4.12;80.79;100528.28;1798939;79;32667;-43
2024/02/01 04:23:49;;;;;;;19.60;12.90;;;;;;;4.13;80.69;100511.13;1798785;79;28479;-43
2024/02/01 04:26:17;;;;;;;20.17;12.93;;;;;;;4.14;80.73;100503.38;1798761;79;25588;-43
2024/02/01 04:28:45;;;;;;;18.55;12.90;;;;;;;4.15;80.59;100506.86;1798800;79;25533;-44
2024/02/01 04:31:13;;;;;;;19.27;12.28;;;;;;;4.11;80.31;100495.33;1798732;79;25642;-43
2024/02/01 04:33:42;;;;;;;20.85;12.65;;;;;;;4.13;80.53;100496.41;1798811;79;25613;-44
2024/02/01 04:36:09;;;;;;;21.37;13.22;;;;;;;4.15;80.62;100500.95;1798906;79;27224;-45
2024/02/01 04:38:37;;;;;;;21.10;12.43;;;;;;;4.15;80.04;100493.47;1798601;79;25743;-45
2024/02/01 04:41:05;;;;;;;24.23;13.65;;;;;;;4.16;80.38;100491.88;1798779;79;25449;-44
2024/02/01 04:43:32;;;;;;;22.20;13.55;;;;;;;4.15;80.14;100481.42;1798753;79;26300;-44
2024/02/01 04:45:59;;;;;;;20.88;13.58;;;;;;;4.16;80.09;100473.67;1798825;79;25621;-45
2024/02/01 04:48:25;;;;;;;23.95;14.07;;;;;;;4.16;80.05;100467.78;1798785;79;27761;-44
2024/02/01 04:50:52;;;;;;;21.20;13.88;;;;;;;4.16;79.65;100465.10;1798609;79;26004;-44
2024/02/01 04:53:18;;;;;;;22.45;13.95;;;;;;;4.15;79.81;100468.04;1798737;79;25493;-43
2024/02/01 04:55:49;;;;;;;23.32;13.48;;;;;;;4.14;79.91;100455.19;1798745;79;25481;-43
2024/02/01 04:58:14;;;;;;;20.17;13.65;;;;;;;4.14;79.94;100445.00;1798182;79;25420;-44
2024/02/01 05:00:40;;;;;;;24.23;14.53;;;;;;;4.14;79.81;100438.30;1798759;79;27317;-44
2024/02/01 05:03:07;;;;;;;26.17;15.05;;;;;;;4.12;79.88;100438.59;1798719;79;25619;-44
2024/02/01 05:05:33;;;;;;;27.37;14.33;;;;;;;4.10;79.80;100438.85;1798751;79;25397;-44
2024/02/01 05:08:00;;;;;;;26.05;15.23;;;;;;;4.09;80.00;100449.27;1798703;79;25956;-43
2024/02/01 05:10:26;;;;;;;26.77;16.15;;;;;;;4.08;80.08;100436.95;1798747;79;25919;-44
2024/02/01 05:12:54;;;;;;;28.60;15.78;;;;;;;4.05;80.08;100433.48;1798727;79;27677;-44
2024/02/01 05:15:20;;;;;;;29.95;15.60;;;;;;;4.03;80.08;100417.39;1798676;79;25568;-46
2024/02/01 05:17:47;;;;;;;27.73;16.45;;;;;;;4.00;80.25;100413.38;1798784;79;25540;-44
2024/02/01 05:20:13;;;;;;;30.15;17.55;;;;;;;3.99;80.29;100420.33;1798725;79;25984;-44
2024/02/01 05:22:42;;;;;;;28.75;17.23;;;;;;;3.97;80.26;100423.27;1798792;79;25612;-44
2024/02/01 05:25:18;;;;;;;32.42;18.25;;;;;;;3.94;80.36;100407.73;1798789;79;27301;-43
2024/02/01 05:27:51;;;;;;;31.07;17.90;;;;;;;3.92;80.45;100403.17;1798506;79;25493;-46
2024/02/01 05:30:22;;;;;;;30.30;17.45;;;;;;;3.90;80.54;100401.30;1798743;79;25363;-43
2024/02/01 05:32:54;;;;;;;31.85;18.25;;;;;;;3.89;80.59;100399.68;1798883;79;26309;-43
2024/02/01 05:35:28;;;;;;;35.08;18.45;;;;;;;3.86;80.64;100386.81;1799004;79;25544;-45
2024/02/01 05:37:57;;;;;;;36.25;19.40;;;;;;;3.84;80.71;100390.29;1798504;79;28362;-43
2024/02/01 05:40:24;;;;;;;38.48;20.08;;;;;;;3.81;80.84;100388.92;1798866;79;25452;-44
2024/02/01 05:42:51;;;;;;;37.88;20.05;;;;;;;3.77;80.91;100383.84;1798930;79;25450;-45
2024/02/01 05:45:21;;;;;;;35.05;21.30;;;;;;;3.72;81.01;100383.27;1798906;79;25640;-45
2024/02/01 05:47:51;;;;;;;42.40;22.93;;;;;;;3.67;81.08;100385.92;1798965;79;25584;-46
2024/02/01 05:50:18;;;;;;;44.20;23.87;;;;;;;3.61;81.23;100386.16;1798874;79;27666;-44
2024/02/01 05:52:45;;;;;;;45.50;24.82;;;;;;;3.56;81.45;100388.30;1798805;79;25753;-44
2024/02/01 05:55:13;;;;;;;48.98;25.15;;;;;;;3.51;81.57;100399.77;1798935;79;25605;-43
2024/02/01 05:57:41;;;;;;;50.12;27.40;;;;;;;3.47;81.83;100387.95;1798879;79;25612;-46
2024/02/01 06:00:10;;;;;;;51.20;28.15;;;;;;;3.42;82.13;100391.14;1798931;79;25577;-44
2024/02/01 06:02:37;;;;;;;55.43;29.50;;;;;;;3.36;82.08;100385.77;1799167;79;28090;-44
2024/02/01 06:05:05;;;;;;;52.67;29.12;;;;;;;3.31;82.40;100390.28;1798791;79;25392;-45
2024/02/01 06:07:35;;;;;;;54.98;28.52;;;;;;;3.25;82.43;100391.30;1798917;79;25557;-44
2024/02/01 06:10:01;;;;;;;56.65;31.40;;;;;;;3.21;82.74;100390.22;1797869;79;25700;-44
2024/02/01 06:12:29;;;;;;;55.80;28.73;;;;;;;3.15;83.00;100386.17;1797088;79;25619;-45
2024/02/01 06:14:56;;;;;;;49.35;27.80;;;;;;;3.13;82.92;100380.80;1797860;79;27331;-44
2024/02/01 06:17:22;;;;;;;51.90;29.05;;;;;;;3.11;83.18;100382.39;1797793;79;25682;-45
2024/02/01 06:19:49;;;;;;;55.73;29.92;;;;;;;3.09;83.24;100382.39;1797927;79;25713;-43
2024/02/01 06:22:15;;;;;;;55.85;29.80;;;;;;;3.06;83.28;100379.68;1797895;79;26195;-43
2024/02/01 06:24:42;;;;;;;50.80;28.83;;;;;;;3.05;83.65;100379.42;1798558;79;25856;-41
2024/02/01 06:27:08;;;;;;;53.20;30.32;;;;;;;3.05;83.58;100378.59;1798884;79;27661;-42
2024/02/01 06:29:37;;;;;;;50.30;28.52;;;;;;;3.04;83.76;100385.81;1798767;79;26010;-44
2024/02/01 06:32:12;;;;;;;53.45;29.00;;;;;;;3.05;83.77;100381.27;1798872;79;25575;-46
2024/02/01 06:34:40;;;;;;;53.25;28.83;;;;;;;3.05;83.76;100386.11;1797676;79;25636;-44
2024/02/01 06:37:08;;;;;;;52.58;28.98;;;;;;;3.06;83.81;100380.22;1799001;79;25450;-44
2024/02/01 06:42:13;;;;;;;48.70;27.98;;;;;;;3.06;83.97;100374.34;1798773;79;25934;-43
2024/02/01 06:44:32;;;;;;;45.92;27.87;;;;;;;3.09;84.04;100375.16;1797186;79;25548;-45
2024/02/01 06:57:45;;;;;;;46.25;24.47;;;;;;;3.21;83.78;100372.30;1798877;79;25533;-43
2024/02/01 07:03:12;;;;;;;44.63;25.77;;;;;;;3.26;83.82;100369.66;1798892;79;25553;-43
2024/02/01 07:08:32;;;;;;;42.93;24.10;;;;;;;3.31;83.73;100367.02;1798811;79;25650;-44
2024/02/01 07:16:21;;;;;;;41.83;24.67;;;;;;;3.39;83.64;100364.91;1692624;84;25506;-44
2024/02/01 07:18:45;;;;;;;;;;;;;;;3.41;83.67;100361.47;1694123;84;27819;-44
2024/02/01 07:21:29;;;;;;;42.03;23.38;;;;;;;3.44;83.64;100356.92;1692619;84;25629;-46
2024/02/01 07:23:56;;;;;;;42.50;24.47;;;;;;;3.45;83.63;100354.53;1689744;84;25580;-44
2024/02/01 07:26:34;;;;;;;42.62;24.02;;;;;;;3.46;83.52;100352.14;1689989;84;26810;-47
2024/02/01 07:59:10;;;;;;;46.05;24.95;;;;;;;3.64;83.12;100321.45;1764090;81;27636;-44
2024/02/01 08:01:48;;;;;;;41.68;24.57;;;;;;;3.63;83.16;100311.28;1763607;81;26202;-42
2024/02/01 08:04:16;;;;;;;48.05;25.17;;;;;;;3.63;83.21;100313.96;1761638;81;25472;-43
2024/02/01 08:09:29;;;;;;;40.05;22.48;;;;;;;3.63;83.63;100312.63;1764129;81;25619;-43
2024/02/01 08:11:56;;;;;;;40.52;22.55;;;;;;;3.62;83.96;100316.89;1764023;81;27328;-45
2024/02/01 08:14:22;;;;;;;42.40;23.98;;;;;;;3.60;83.91;100319.03;1763979;81;25493;-45
2024/02/01 08:16:50;;;;;;;39.40;22.70;;;;;;;3.57;84.15;100313.66;1764080;81;25582;-43
2024/02/01 08:19:20;;;;;;;44.33;24.30;;;;;;;3.57;84.65;100316.88;1764125;81;25613;-44
2024/02/01 08:21:45;;;;;;;45.88;23.75;;;;;;;3.53;85.05;100322.74;1763824;81;25393;-43
2024/02/01 08:24:13;;;;;;;41.60;23.30;;;;;;;3.50;85.48;100309.09;1764030;81;27648;-43
2024/02/01 08:26:41;;;;;;;41.88;22.77;;;;;;;3.48;85.35;100325.94;1763946;81;25737;-43
2024/02/01 08:29:14;;;;;;;47.43;23.77;;;;;;;3.44;86.29;100328.33;1764043;81;25444;-44
2024/02/01 08:31:40;;;;;;;41.68;24.12;;;;;;;3.41;86.41;100337.41;1764063;81;25957;-44
2024/02/01 08:34:14;;;;;;;47.80;24.30;;;;;;;3.39;87.06;100342.19;1764094;81;25600;-44
2024/02/01 08:36:41;;;;;;;45.50;24.45;;;;;;;3.34;88.14;100337.09;1763357;81;28331;-44
2024/02/01 08:39:08;;;;;;;42.70;22.02;;;;;;;3.33;87.62;100350.72;1763906;81;25840;-45
2024/02/01 08:41:35;;;;;;;40.38;23.70;;;;;;;3.30;87.84;100334.69;1787042;79;25538;-43
2024/02/01 08:44:06;;;;;;;43.90;23.18;;;;;;;3.31;88.29;100344.30;1796058;79;25527;-44
2024/02/01 08:46:34;;;;;;;39.73;22.58;;;;;;;3.29;88.89;100342.41;1796129;79;25438;-45
2024/02/01 08:49:03;;;;;;;39.15;23.02;;;;;;;3.27;89.15;100345.06;1795990;79;27310;-42
2024/02/01 08:51:30;;;;;;;;;;;;;;;3.24;89.02;100334.37;1797230;79;25726;-44
2024/02/01 08:53:58;;;;;;;38.38;22.37;;;;;;;3.23;90.07;100336.75;1796060;79;25603;-44
2024/02/01 08:56:36;;;;;;;36.85;21.42;;;;;;;3.18;89.71;100334.88;1796011;79;25774;-44
2024/02/01 08:58:53;;;;;;;39.33;21.62;;;;;;;3.20;91.14;100323.91;1793730;79;25541;-44
2024/02/01 09:01:27;;;;;;;38.35;20.25;;;;;;;3.16;90.28;100334.84;1796112;79;27664;-43
2024/02/01 09:03:54;;;;;;;36.70;21.20;;;;;;;3.20;91.53;100345.83;1795926;79;25419;-44
2024/02/01 09:06:21;;;;;;;38.45;22.20;;;;;;;3.16;91.18;100335.64;1796107;79;25626;-44
2024/02/01 09:08:49;;;;;;;38.10;20.70;;;;;;;3.14;91.67;100331.63;1796165;79;26621;-45
2024/02/01 09:11:18;;;;;;;34.08;20.55;;;;;;;3.13;91.87;100330.84;1796207;79;25379;-45
2024/02/01 09:13:46;;;;;;;37.13;20.40;;;;;;;3.13;92.21;100333.52;1796424;79;28021;-45
2024/02/01 09:16:24;;;;;;;33.67;20.00;;;;;;;3.14;92.11;100336.98;1796040;79;25380;-44
2024/02/01 09:18:54;;;;;;;33.13;19.25;;;;;;;3.12;92.42;100330.55;1796220;79;25467;-45
2024/02/01 09:21:20;;;;;;;34.23;20.57;;;;;;;3.13;93.23;100336.70;1796368;79;28511;-45
2024/02/01 09:23:47;;;;;;;36.45;21.77;;;;;;;3.12;93.56;100333.23;1796273;79;25564;-45
2024/02/01 09:26:14;;;;;;;35.23;21.02;;;;;;;3.12;93.51;100341.25;1796144;79;28318;-44
2024/02/01 09:28:43;;;;;;;35.90;21.15;;;;;;;3.14;93.44;100337.78;1795992;79;25711;-44
2024/02/01 09:31:19;;;;;;;33.88;19.70;;;;;;;3.13;93.76;100338.86;1796141;79;25442;-43
2024/02/01 09:33:47;;;;;;;32.03;16.65;;;;;;;3.11;94.23;100338.28;1788002;78;25981;-43
2024/02/01 09:36:14;;;;;;;31.90;16.00;;;;;;;3.10;94.14;100336.70;1787257;79;25409;-44
2024/02/01 09:38:41;;;;;;;35.15;18.70;;;;;;;3.14;94.49;100332.44;1787240;79;27345;-44
2024/02/01 09:41:15;;;;;;;33.25;17.32;;;;;;;3.16;94.35;100338.32;1781228;79;25611;-44
2024/02/01 09:43:39;;;;;;;29.70;17.60;;;;;;;3.18;94.54;100330.05;1796569;79;25418;-43
2024/02/01 09:46:08;;;;;;;26.90;16.17;;;;;;;3.21;94.64;100339.43;1795543;79;26316;-43
2024/02/01 09:48:38;;;;;;;23.63;14.13;;;;;;;3.24;94.46;100336.25;1795822;79;25793;-44
2024/02/01 09:51:05;;;;;;;35.03;23.75;;;;;;;3.25;95.01;100339.17;1796417;79;27700;-47
2024/02/01 09:53:31;;;;;;;25.50;15.28;;;;;;;3.31;94.66;100348.84;1796314;79;25384;-43
2024/02/01 09:55:59;;;;;;;84.20;77.08;;;;;;;3.32;95.21;100333.06;1796458;79;25564;-44
2024/02/01 09:58:27;;;;;;;81.03;73.90;;;;;;;3.25;95.72;100315.94;1796476;79;25960;-45
2024/02/01 10:00:54;;;;;;;59.55;54.98;;;;;;;3.24;95.31;100318.87;1796590;79;25378;-44
2024/02/01 10:03:26;;;;;;;35.52;31.77;;;;;;;3.26;95.29;100320.75;1796431;79;27884;-44
2024/02/01 10:05:52;;;;;;;83.50;76.30;;;;;;;3.35;95.22;100339.23;1796389;79;25630;-43
2024/02/01 10:08:19;;;;;;;25.12;15.10;;;;;;;2.93;96.12;100242.00;1796426;79;25560;-43
2024/02/01 10:10:48;;;;;;;21.70;14.80;;;;;;;3.34;95.64;100330.41;1796445;79;26177;-45
2024/02/01 10:13:30;;;;;;;24.77;15.63;;;;;;;3.34;96.21;100329.08;1796591;79;25407;-43
2024/02/01 10:15:49;;;;;;;24.20;16.02;;;;;;;3.34;95.90;100323.73;1794525;79;27304;-43
2024/02/01 10:18:20;;;;;;;25.02;15.75;;;;;;;3.32;96.12;100328.53;1796315;79;25437;-43
2024/02/01 10:20:57;;;;;;;27.75;15.80;;;;;;;3.31;96.32;100325.58;1796487;79;25410;-44
2024/02/01 10:23:24;;;;;;;24.80;14.73;;;;;;;3.29;96.40;100317.02;1796439;79;25651;-44
2024/02/01 10:25:54;;;;;;;23.12;15.58;;;;;;;3.29;96.94;100321.56;1796445;79;25609;-44
2024/02/01 10:28:34;;;;;;;24.70;16.48;;;;;;;3.28;97.09;100311.39;1796397;79;27340;-45
2024/02/01 10:30:56;;;;;;;22.27;14.30;;;;;;;3.25;97.29;100306.58;1795990;79;25456;-45
2024/02/01 10:33:25;;;;;;;20.35;13.30;;;;;;;3.26;97.56;100313.52;1796632;79;25613;-45
2024/02/01 10:35:54;;;;;;;21.10;14.83;;;;;;;3.29;97.70;100322.37;1796316;79;25985;-46
2024/02/01 10:38:24;;;;;;;22.85;14.05;;;;;;;3.30;98.03;100321.31;1796631;79;25463;-45
2024/02/01 10:40:59;;;;;;;21.87;14.80;;;;;;;3.32;98.49;100308.48;1796312;79;27329;-45
2024/02/01 10:43:34;;;;;;;23.65;14.38;;;;;;;3.33;98.26;100305.27;1796330;79;25456;-45
2024/02/01 10:46:07;;;;;;;24.05;14.45;;;;;;;3.34;98.96;100305.55;1796415;79;25375;-44
2024/02/01 10:48:42;;;;;;;52.15;35.33;;;;;;;3.35;99.44;100312.49;1796399;79;26577;-45
2024/02/01 10:51:10;;;;;;;35.95;23.55;;;;;;;3.38;99.22;100313.86;1796496;79;25819;-44
2024/02/01 10:53:44;;;;;;;22.13;14.85;;;;;;;3.44;99.16;100312.80;1796397;79;27324;-44
2024/02/01 10:56:14;;;;;;;22.05;14.87;;;;;;;3.50;99.46;100310.43;1796295;79;26016;-46
2024/02/01 10:58:53;;;;;;;19.00;13.78;;;;;;;3.56;100.00;100309.39;1795601;79;25526;-44
2024/02/01 11:01:24;;;;;;;21.85;15.35;;;;;;;3.59;99.51;100300.82;1796495;79;26173;-45
2024/02/01 11:03:57;;;;;;;18.77;13.45;;;;;;;3.59;99.35;100299.48;1796291;79;25624;-45
2024/02/01 11:06:26;;;;;;;20.70;14.18;;;;;;;3.59;98.86;100296.02;1795926;79;28015;-45
2024/02/01 11:08:56;;;;;;;20.90;14.20;;;;;;;3.60;98.84;100288.27;1796384;79;25648;-44
2024/02/01 11:11:31;;;;;;;21.20;14.23;;;;;;;3.61;98.94;100298.71;1796398;79;25620;-44
2024/02/01 11:14:14;;;;;;;20.97;13.68;;;;;;;3.61;98.81;100289.86;1796414;79;25640;-44
2024/02/01 11:16:51;;;;;;;24.55;13.85;;;;;;;3.62;98.93;100290.14;1796439;79;25396;-43
2024/02/01 11:19:22;;;;;;;20.70;14.50;;;;;;;3.62;99.11;100287.47;1796344;79;28366;-44
2024/02/01 11:21:59;;;;;;;19.10;12.88;;;;;;;3.64;98.95;100291.48;1796268;79;26018;-45
2024/02/01 11:24:29;;;;;;;19.60;12.98;;;;;;;3.63;99.25;100294.44;1796391;79;25609;-48
2024/02/01 11:27:12;;;;;;;19.17;13.05;;;;;;;3.61;98.98;100286.67;1796314;79;25636;-45
2024/02/01 11:29:45;;;;;;;18.60;13.05;;;;;;;3.61;99.56;100286.67;1791779;78;25408;-44
2024/02/01 11:32:19;;;;;;;19.60;13.62;;;;;;;3.61;99.64;100276.49;1796359;79;27181;-44
2024/02/01 11:34:52;;;;;;;21.95;13.62;;;;;;;3.60;99.82;100278.91;1796250;79;25712;-47
2024/02/01 11:37:24;;;;;;;22.77;13.95;;;;;;;3.59;99.71;100288.78;1796450;79;25587;-44
2024/02/01 11:39:53;;;;;;;21.12;13.78;;;;;;;3.60;99.97;100282.38;1796282;79;26607;-44
2024/02/01 11:42:21;;;;;;;18.30;13.15;;;;;;;3.61;100.00;100286.67;1767079;80;25582;-44
2024/02/01 11:44:49;;;;;;;18.15;13.43;;;;;;;3.61;100.00;100280.50;1787869;79;28364;-47
2024/02/01 11:47:18;;;;;;;20.90;13.45;;;;;;;3.63;100.00;100277.84;1787806;80;25634;-44
2024/02/01 11:49:49;;;;;;;20.65;13.10;;;;;;;3.64;100.00;100270.63;1788073;79;25547;-44
2024/02/01 11:52:44;;;;;;;22.32;14.13;;;;;;;3.65;100.00;100274.37;1787669;80;26015;-45
2024/02/01 11:55:13;;;;;;;21.60;13.50;;;;;;;3.69;100.00;100272.77;1788014;80;25603;-44
2024/02/01 11:57:48;;;;;;;21.12;14.07;;;;;;;3.75;100.00;100273.61;1788206;79;27687;-43
2024/02/01 12:00:17;;;;;;;18.80;13.80;;;;;;;3.83;100.00;100274.95;1786624;80;25566;-44
2024/02/01 12:02:45;;;;;;;18.92;12.98;;;;;;;3.97;100.00;100280.59;1763653;81;25630;-43
2024/02/01 12:05:17;;;;;;;20.02;13.48;;;;;;;4.03;100.00;100279.00;1764264;81;26667;-44
2024/02/01 12:07:44;;;;;;;20.72;14.95;;;;;;;4.08;100.00;100277.67;1764143;81;25631;-44
2024/02/01 12:10:12;;;;;;;23.15;15.60;;;;;;;4.30;100.00;100284.66;1764033;81;27752;-45
2024/02/01 12:12:44;;;;;;;20.25;14.65;;;;;;;4.76;100.00;100275.27;1737915;81;25477;-45
2024/02/01 12:15:14;;;;;;;19.23;13.75;;;;;;;5.30;100.00;100264.41;1764067;81;25460;-44
2024/02/01 12:17:45;;;;;;;15.08;11.80;;;;;;;5.51;100.00;100272.38;1764127;81;25960;-43
2024/02/01 12:20:17;;;;;;;17.27;12.05;;;;;;;5.68;100.00;100268.00;1764109;81;25605;-44
2024/02/01 12:22:46;;;;;;;15.30;11.48;;;;;;;5.76;98.14;100276.81;1764047;81;27430;-42